Time;durP1;ratioP1;P1;durP2;ratioP2;P2;SDS_P1;SDS_P2;PMS_P1;PMS_P2;Temp;Humidity;BMP_temperature;BMP_pressure;BME280_temperature;BME280_humidity;BME280_pressure;Samples;Min_cycle;Max_cycle;Signal;HPM_P1;HPM_P2
2023/06/06 00:03:11;;;;;;;7.90;5.13;;;;;;;20.68;72.25;100098.03;10214618;28;96939;-81
2023/06/06 00:08:14;;;;;;;5.75;4.00;;;;;;;20.57;72.59;100097.25;10213351;28;100767;-81
2023/06/06 00:13:18;;;;;;;6.18;4.05;;;;;;;20.50;72.31;100085.34;10213569;28;97125;-81
2023/06/06 00:18:23;;;;;;;5.72;3.63;;;;;;;20.45;72.08;100092.88;10214416;28;96836;-81
2023/06/06 00:23:26;;;;;;;5.20;3.72;;;;;;;20.49;71.52;100091.66;10212844;28;97530;-81
2023/06/06 00:28:29;;;;;;;5.50;3.60;;;;;;;20.50;70.87;100080.00;10213461;28;96592;-81
2023/06/06 00:33:34;;;;;;;6.78;3.50;;;;;;;20.29;71.53;100071.88;10213231;28;97406;-81
2023/06/06 00:38:38;;;;;;;4.35;3.20;;;;;;;20.31;71.23;100077.97;10213638;28;96765;-81
2023/06/06 00:43:41;;;;;;;6.10;3.93;;;;;;;20.28;71.00;100072.88;10212769;28;96769;-81
2023/06/06 00:48:47;;;;;;;4.90;3.50;;;;;;;20.24;70.98;100072.25;10213103;28;96730;-80
2023/06/06 00:53:51;;;;;;;5.35;3.50;;;;;;;20.15;71.83;100062.31;10213820;28;97812;-81
2023/06/06 00:58:57;;;;;;;6.30;3.73;;;;;;;20.01;72.31;100065.25;10213582;28;96748;-81
2023/06/06 01:04:07;;;;;;;6.75;3.92;;;;;;;19.91;72.63;100067.00;10211808;28;96904;-81
2023/06/06 01:09:12;;;;;;;6.07;4.10;;;;;;;19.99;72.30;100061.91;10224510;28;96647;-81
2023/06/06 01:14:23;;;;;;;5.22;3.80;;;;;;;20.15;71.37;100058.81;10251861;28;96838;-81
2023/06/06 01:19:32;;;;;;;5.30;3.13;;;;;;;20.03;71.88;100049.97;10254491;28;96683;-81
2023/06/06 01:24:37;;;;;;;4.75;3.55;;;;;;;19.91;72.33;100055.47;10259659;28;96684;-81
2023/06/06 01:29:40;;;;;;;4.90;3.45;;;;;;;19.94;72.18;100053.38;10258759;28;96597;-81
2023/06/06 01:34:49;;;;;;;4.78;3.35;;;;;;;19.84;72.73;100059.63;10259236;28;97170;-81
2023/06/06 01:39:57;;;;;;;5.00;3.30;;;;;;;19.79;72.41;100049.28;10259346;28;97618;-81
2023/06/06 01:45:02;;;;;;;4.43;3.17;;;;;;;19.72;72.81;100055.28;10258621;28;96920;-81
2023/06/06 01:50:07;;;;;;;5.43;3.47;;;;;;;19.73;72.79;100052.47;10259418;28;96753;-81
2023/06/06 01:55:12;;;;;;;5.68;3.38;;;;;;;19.84;72.65;100046.25;10258880;28;97618;-81
2023/06/06 02:00:16;;;;;;;5.10;3.42;;;;;;;19.84;72.73;100057.78;10257564;28;96755;-81
2023/06/06 02:05:20;;;;;;;5.18;3.13;;;;;;;19.70;73.29;100049.19;10244448;28;96780;-81
2023/06/06 02:10:25;;;;;;;5.13;3.40;;;;;;;19.57;73.82;100056.47;10217954;28;96734;-81
2023/06/06 02:15:29;;;;;;;;;;;;;;;19.66;73.96;100045.91;10218314;28;96920;-81
2023/06/06 02:20:32;;;;;;;5.60;3.30;;;;;;;19.62;73.28;100054.28;10256761;28;96659;-81
2023/06/06 02:25:37;;;;;;;5.57;3.60;;;;;;;19.94;72.49;100039.19;10257836;28;96964;-81
2023/06/06 02:30:41;;;;;;;5.20;3.60;;;;;;;20.13;71.87;100034.06;10257000;28;96734;-81
2023/06/06 02:35:44;;;;;;;5.25;3.55;;;;;;;20.05;72.22;100028.47;10256538;28;96536;-81
2023/06/06 02:40:49;;;;;;;4.63;3.13;;;;;;;20.08;72.17;100026.41;10257594;28;96782;-81
2023/06/06 02:45:53;;;;;;;4.85;3.38;;;;;;;20.21;71.75;100027.09;10256710;28;96616;-81
2023/06/06 02:50:56;;;;;;;4.47;3.20;;;;;;;20.26;71.36;100022.22;10256249;28;96785;-81
2023/06/06 02:56:01;;;;;;;5.55;3.75;;;;;;;20.33;71.28;100011.88;10256040;28;97933;-81
2023/06/06 03:01:04;;;;;;;4.65;3.22;;;;;;;20.30;71.29;100017.50;10256825;28;97511;-81
2023/06/06 03:06:08;;;;;;;5.43;3.45;;;;;;;20.32;70.85;100015.56;10236674;28;96966;-81
2023/06/06 03:11:13;;;;;;;4.43;2.83;;;;;;;20.24;71.03;100024.16;10216286;28;97488;-81
2023/06/06 03:16:16;;;;;;;4.43;3.05;;;;;;;20.21;71.07;100019.09;10215310;28;96703;-81
2023/06/06 03:21:21;;;;;;;4.73;3.40;;;;;;;20.25;70.97;100022.34;10215720;28;97953;-81
2023/06/06 03:26:27;;;;;;;5.03;2.95;;;;;;;20.14;71.22;100020.56;10215812;28;96994;-80
2023/06/06 03:31:31;;;;;;;5.05;3.42;;;;;;;20.15;71.32;100016.06;10215961;28;96764;-80
2023/06/06 03:36:35;;;;;;;4.15;3.38;;;;;;;20.19;70.91;100021.03;10215081;28;97546;-80
2023/06/06 03:41:40;;;;;;;4.60;3.23;;;;;;;20.16;70.97;100009.75;10214613;28;96729;-81
2023/06/06 03:46:43;;;;;;;3.63;2.67;;;;;;;20.21;70.86;99997.72;10213662;28;97186;-80
2023/06/06 03:51:47;;;;;;;3.83;3.03;;;;;;;20.27;70.44;99997.19;10214571;28;97025;-81
2023/06/06 03:56:52;;;;;;;5.07;3.50;;;;;;;20.24;70.51;99993.91;10214489;28;96843;-81
2023/06/06 04:01:55;;;;;;;4.60;2.83;;;;;;;20.22;70.70;99990.53;10214839;28;97655;-81
2023/06/06 04:06:58;;;;;;;5.00;3.15;;;;;;;20.23;70.33;99990.41;10213603;28;96678;-81
2023/06/06 04:12:03;;;;;;;4.18;2.85;;;;;;;20.27;70.12;99981.16;10214427;28;96928;-81
2023/06/06 04:17:07;;;;;;;4.63;3.00;;;;;;;20.23;70.17;99973.53;10233470;28;97649;-81
2023/06/06 04:22:10;;;;;;;4.57;3.03;;;;;;;20.19;70.18;99978.28;10254881;28;96814;-81
2023/06/06 04:27:16;;;;;;;3.90;2.90;;;;;;;20.21;70.05;99989.69;10253701;28;97297;-81
2023/06/06 04:32:21;;;;;;;4.45;3.22;;;;;;;20.17;70.38;99988.25;10253277;28;98041;-80
2023/06/06 04:37:24;;;;;;;4.07;2.92;;;;;;;20.17;70.26;99988.25;10252556;28;96763;-80
2023/06/06 04:42:32;;;;;;;5.47;3.20;;;;;;;20.10;70.25;99997.72;10253780;28;97624;-81
2023/06/06 04:47:36;;;;;;;5.28;2.72;;;;;;;20.15;70.11;99997.38;10252902;28;96755;-80
2023/06/06 04:52:40;;;;;;;3.50;2.67;;;;;;;20.09;70.49;100003.22;10253781;28;98023;-81
2023/06/06 04:57:45;;;;;;;4.83;3.00;;;;;;;20.07;70.28;99991.78;10260303;28;96647;-80
2023/06/06 05:02:50;;;;;;;5.47;2.90;;;;;;;20.14;70.02;99993.00;10260277;28;96777;-81
2023/06/06 05:07:53;;;;;;;4.63;2.78;;;;;;;20.21;69.69;99987.03;10244271;28;96681;-81
2023/06/06 05:12:58;;;;;;;5.50;2.50;;;;;;;20.17;69.81;99992.72;10260584;28;96759;-81
2023/06/06 05:18:01;;;;;;;4.43;2.45;;;;;;;20.24;69.60;99985.91;10260118;28;96832;-81
2023/06/06 05:23:06;;;;;;;4.40;2.65;;;;;;;20.33;69.48;99987.84;10258879;28;96841;-81
2023/06/06 05:28:11;;;;;;;4.45;2.92;;;;;;;20.34;69.29;99993.06;10258680;28;96744;-81
2023/06/06 05:33:14;;;;;;;3.60;2.58;;;;;;;20.43;69.30;99988.75;10259332;28;97743;-80
2023/06/06 05:38:18;;;;;;;4.28;2.70;;;;;;;20.51;69.09;99994.31;10259105;28;96695;-81
2023/06/06 05:43:22;;;;;;;4.90;2.42;;;;;;;20.57;68.96;99993.78;10258295;28;96716;-81
2023/06/06 05:48:26;;;;;;;3.85;2.72;;;;;;;20.61;68.51;99991.72;10258426;28;97287;-81
2023/06/06 05:53:29;;;;;;;3.60;2.42;;;;;;;20.70;68.24;99994.47;10259104;28;96686;-81
2023/06/06 05:58:34;;;;;;;4.40;2.13;;;;;;;20.72;68.08;99989.84;10257636;28;96594;-81
2023/06/06 06:03:38;;;;;;;3.38;2.70;;;;;;;20.73;67.76;99988.84;10258536;28;96869;-80
2023/06/06 06:08:44;;;;;;;4.32;3.03;;;;;;;20.77;67.36;99986.75;10217983;28;96725;-80
2023/06/06 06:13:49;;;;;;;3.58;2.70;;;;;;;20.76;67.26;99987.72;10218075;28;97540;-80
2023/06/06 06:18:52;;;;;;;4.20;2.85;;;;;;;20.82;67.39;99995.22;10257390;28;97069;-81
2023/06/06 06:23:56;;;;;;;3.83;2.50;;;;;;;20.80;67.01;99997.19;10257585;28;96737;-81
2023/06/06 06:29:00;;;;;;;3.85;2.38;;;;;;;20.91;66.97;99997.94;10258001;28;96921;-81
2023/06/06 06:34:04;;;;;;;4.28;2.67;;;;;;;20.98;66.76;99999.13;10256486;28;97729;-80
2023/06/06 06:39:07;;;;;;;4.28;2.67;;;;;;;21.00;66.17;99993.66;10257396;28;96919;-81
2023/06/06 06:44:12;;;;;;;3.97;2.25;;;;;;;21.07;65.90;99990.31;10256985;28;96701;-80
2023/06/06 06:49:16;;;;;;;3.42;2.53;;;;;;;21.20;65.76;99990.13;10256376;28;96588;-81
2023/06/06 06:54:22;;;;;;;3.00;2.60;;;;;;;21.26;65.22;99998.44;10257795;28;97703;-81
2023/06/06 06:59:27;;;;;;;4.13;2.70;;;;;;;21.41;64.83;99991.75;10256576;28;96695;-81
2023/06/06 07:04:31;;;;;;;3.13;2.33;;;;;;;21.54;64.37;99996.88;10249806;28;96862;-81
2023/06/06 07:09:35;;;;;;;3.33;2.13;;;;;;;21.72;63.83;99995.25;10254841;28;97634;-81
2023/06/06 07:14:40;;;;;;;2.97;2.25;;;;;;;21.84;63.00;99980.75;10256391;28;96667;-81
2023/06/06 07:19:44;;;;;;;3.78;2.42;;;;;;;22.09;62.51;99982.09;10256155;28;96901;-81
2023/06/06 07:24:47;;;;;;;5.53;2.93;;;;;;;22.16;61.54;99980.53;10254891;28;96879;-81
2023/06/06 07:29:52;;;;;;;4.20;2.10;;;;;;;22.22;61.41;99988.00;10255869;28;96756;-81
2023/06/06 07:34:56;;;;;;;3.13;2.10;;;;;;;22.23;61.42;99987.03;10253288;22;97346;-81
2023/06/06 07:39:59;;;;;;;7.60;2.07;;;;;;;22.43;60.95;99991.41;10225754;28;97565;-81
2023/06/06 07:45:05;;;;;;;3.97;2.30;;;;;;;22.55;60.96;99990.25;10256141;28;96646;-81
2023/06/06 07:50:10;;;;;;;3.30;2.22;;;;;;;22.81;60.79;100003.94;10255626;28;97005;-81
2023/06/06 07:55:13;;;;;;;3.92;2.13;;;;;;;22.98;60.38;100001.38;10254803;28;98005;-81
2023/06/06 08:00:19;;;;;;;3.33;2.47;;;;;;;22.95;59.90;99998.97;10253460;28;96912;-81
2023/06/06 08:05:22;;;;;;;3.75;2.08;;;;;;;23.30;59.90;99995.63;10241195;28;96868;-81
2023/06/06 08:10:26;;;;;;;3.27;2.30;;;;;;;23.39;59.72;100000.94;10214297;28;96720;-81
2023/06/06 08:15:30;;;;;;;2.90;1.80;;;;;;;23.59;59.40;100001.75;10214698;28;96771;-81
2023/06/06 08:20:34;;;;;;;3.83;2.00;;;;;;;23.74;58.88;99994.84;10214060;28;96987;-81
2023/06/06 08:25:55;;;;;;;3.17;1.98;;;;;;;23.93;58.90;99991.19;10207258;28;97106;-81
2023/06/06 08:31:01;;;;;;;2.40;1.90;;;;;;;23.93;58.26;99984.00;10213928;28;96784;-81
2023/06/06 08:36:06;;;;;;;2.75;1.80;;;;;;;24.14;57.71;99984.56;10213500;28;96929;-81
2023/06/06 08:41:11;;;;;;;3.05;2.10;;;;;;;24.39;57.12;99980.28;10213075;28;97306;-81
2023/06/06 08:46:17;;;;;;;2.38;1.70;;;;;;;24.61;56.70;99980.66;10213392;28;97776;-81
2023/06/06 08:51:27;;;;;;;2.65;2.05;;;;;;;24.64;56.21;99980.31;10212692;28;97249;-81
2023/06/06 08:56:30;;;;;;;3.13;2.30;;;;;;;24.67;56.05;99976.50;10213119;28;96951;-81
2023/06/06 09:01:36;;;;;;;2.93;2.00;;;;;;;24.54;55.86;99976.88;10212817;28;97958;-81
2023/06/06 09:06:43;;;;;;;2.95;2.05;;;;;;;24.46;55.76;99968.72;10212872;28;96608;-81
2023/06/06 09:11:47;;;;;;;2.60;2.00;;;;;;;24.79;55.20;99970.69;10212785;28;96797;-81
2023/06/06 09:16:53;;;;;;;2.73;2.13;;;;;;;24.96;54.67;99966.25;10212033;28;96802;-81
2023/06/06 09:21:59;;;;;;;2.53;1.92;;;;;;;25.03;54.86;99958.41;10213032;28;97360;-81
2023/06/06 09:27:02;;;;;;;2.28;1.65;;;;;;;25.28;54.45;99968.31;10212542;28;96755;-81
2023/06/06 09:32:12;;;;;;;2.63;1.90;;;;;;;25.25;54.16;99955.16;10212263;28;97289;-82
2023/06/06 09:37:15;;;;;;;3.08;2.08;;;;;;;25.11;54.48;99955.75;10211603;28;97128;-81
2023/06/06 09:42:19;;;;;;;3.20;2.03;;;;;;;25.13;54.62;99961.84;10216199;28;96691;-81
2023/06/06 09:47:23;;;;;;;3.17;1.90;;;;;;;25.13;54.79;99954.59;10219262;28;97933;-81
2023/06/06 09:52:31;;;;;;;2.50;1.67;;;;;;;25.11;55.09;99958.44;10218785;28;96645;-81
2023/06/06 09:57:36;;;;;;;2.65;1.90;;;;;;;25.21;54.74;99962.72;10218661;28;97681;-81
2023/06/06 10:02:43;;;;;;;1.92;1.45;;;;;;;25.29;54.58;99964.63;10218329;28;96934;-81
2023/06/06 10:07:47;;;;;;;2.80;2.00;;;;;;;25.52;54.39;99957.66;10217665;28;97207;-81
2023/06/06 10:12:51;;;;;;;;;;;;;;;25.68;54.07;99955.84;10218929;28;96994;-81
2023/06/06 10:17:58;;;;;;;2.40;1.95;;;;;;;25.77;54.30;99948.66;10218578;28;97850;-81
2023/06/06 10:23:02;;;;;;;2.60;1.95;;;;;;;25.98;53.52;99961.69;10217622;28;96764;-82
2023/06/06 10:28:13;;;;;;;3.03;2.03;;;;;;;26.15;52.98;99947.22;10216975;28;96753;-82
2023/06/06 10:33:28;;;;;;;2.78;1.83;;;;;;;26.17;52.70;99950.59;10216535;28;96700;-81
2023/06/06 10:38:33;;;;;;;2.55;1.63;;;;;;;26.26;53.13;99944.19;10216541;28;96553;-81
2023/06/06 10:43:52;;;;;;;2.78;1.77;;;;;;;26.26;52.52;99950.44;10216948;28;96723;-81
2023/06/06 10:48:58;;;;;;;2.58;1.95;;;;;;;26.29;52.67;99939.31;10217688;28;96912;-81
2023/06/06 10:54:18;;;;;;;2.13;1.80;;;;;;;26.56;52.26;99944.38;10216373;28;96796;-81
2023/06/06 10:59:22;;;;;;;2.30;1.83;;;;;;;26.83;52.45;99933.25;10215463;28;96899;-81
2023/06/06 11:04:29;;;;;;;2.83;1.95;;;;;;;26.97;51.84;99932.50;10216586;28;96694;-81
2023/06/06 11:09:33;;;;;;;2.22;1.80;;;;;;;26.91;52.20;99927.81;10216697;28;96839;-81
2023/06/06 11:14:57;;;;;;;2.25;1.77;;;;;;;27.26;52.22;99923.00;10215836;28;96916;-82
2023/06/06 11:20:03;;;;;;;2.38;2.03;;;;;;;27.69;52.36;99911.69;10216373;28;96580;-82
2023/06/06 11:25:08;;;;;;;3.55;2.30;;;;;;;27.52;50.97;99910.91;10214542;28;96835;-81
2023/06/06 11:30:14;;;;;;;2.08;1.85;;;;;;;27.69;50.69;99900.84;10215422;28;97045;-82
2023/06/06 11:35:20;;;;;;;3.08;2.10;;;;;;;27.88;50.64;99893.13;10214801;28;97612;-81
2023/06/06 11:40:25;;;;;;;2.45;1.73;;;;;;;27.68;50.48;99877.56;10244985;28;96719;-81
2023/06/06 11:45:31;;;;;;;3.13;2.00;;;;;;;27.56;50.86;99871.66;10255352;28;97491;-81
2023/06/06 11:50:37;;;;;;;2.25;1.75;;;;;;;27.75;50.74;99865.81;10255175;28;96723;-81
2023/06/06 11:55:40;;;;;;;2.70;2.08;;;;;;;27.85;50.36;99857.50;10254291;28;96691;-82
2023/06/06 12:00:45;;;;;;;2.15;1.75;;;;;;;28.24;50.35;99854.66;10255807;28;96683;-82
2023/06/06 12:06:00;;;;;;;2.35;1.73;;;;;;;28.25;49.79;99846.34;10248032;28;97448;-82
2023/06/06 12:11:26;;;;;;;2.38;1.80;;;;;;;28.38;49.50;99838.47;10214876;28;97752;-82
2023/06/06 12:16:30;;;;;;;2.35;1.98;;;;;;;28.73;49.26;99842.31;10212694;28;97743;-82
2023/06/06 12:21:46;;;;;;;3.08;2.20;;;;;;;28.43;49.20;99830.63;10213952;28;96720;-82
2023/06/06 12:26:56;;;;;;;1.88;1.50;;;;;;;28.42;49.68;99834.38;10213683;28;97450;-82
2023/06/06 12:32:13;;;;;;;2.30;1.80;;;;;;;28.66;49.82;99825.97;10214265;28;96729;-81
2023/06/06 12:37:18;;;;;;;2.55;1.77;;;;;;;28.64;49.48;99827.19;10213043;28;96792;-82
2023/06/06 12:42:22;;;;;;;2.45;1.55;;;;;;;28.69;49.35;99816.66;10213361;28;96580;-82
2023/06/06 12:47:25;;;;;;;2.60;2.10;;;;;;;28.77;49.32;99819.25;10213803;28;96756;-82
2023/06/06 12:52:30;;;;;;;2.33;1.83;;;;;;;28.38;50.05;99813.25;10214047;28;96938;-80
2023/06/06 12:57:33;;;;;;;2.53;1.90;;;;;;;28.36;50.26;99813.44;10212900;28;96704;-82
2023/06/06 13:02:37;;;;;;;3.33;2.15;;;;;;;28.63;49.42;99802.00;10213797;28;96863;-82
2023/06/06 13:07:42;;;;;;;2.83;2.13;;;;;;;28.96;48.79;99780.78;10211279;28;96732;-82
2023/06/06 13:12:46;;;;;;;2.17;1.73;;;;;;;29.35;48.33;99773.13;10212882;28;96982;-82
2023/06/06 13:17:49;;;;;;;2.63;2.00;;;;;;;29.05;48.86;99761.50;10219590;28;96650;-82
2023/06/06 13:22:54;;;;;;;2.42;1.83;;;;;;;29.63;48.12;99755.09;10220132;28;96781;-82
2023/06/06 13:27:58;;;;;;;2.45;1.80;;;;;;;29.64;47.52;99742.38;10219287;28;97722;-82
2023/06/06 13:33:01;;;;;;;3.13;2.40;;;;;;;30.18;47.25;99728.03;10218671;28;96733;-81
2023/06/06 13:38:06;;;;;;;2.22;1.80;;;;;;;30.17;47.94;99729.06;10218911;28;96792;-82
2023/06/06 13:43:10;;;;;;;2.50;2.00;;;;;;;30.30;46.64;99716.63;10218750;28;96741;-82
2023/06/06 13:48:17;;;;;;;3.80;2.03;;;;;;;30.44;46.51;99710.22;10218566;28;96815;-82
2023/06/06 13:53:22;;;;;;;2.53;1.80;;;;;;;29.65;47.03;99703.38;10218943;28;96636;-82
2023/06/06 13:58:26;;;;;;;2.90;2.00;;;;;;;29.11;47.74;99709.28;10217542;28;97272;-82
2023/06/06 14:03:29;;;;;;;2.25;1.83;;;;;;;28.89;48.37;99703.97;10218127;28;97284;-82
2023/06/06 14:08:34;;;;;;;;;;;;;;;28.57;49.02;99713.38;10218151;28;96688;-82
2023/06/06 14:13:38;;;;;;;3.30;1.90;;;;;;;28.39;51.87;99720.19;10218676;28;97643;-81
2023/06/06 14:18:46;;;;;;;2.63;2.20;;;;;;;28.24;52.56;99708.50;10217796;28;96598;-82
2023/06/06 14:23:51;;;;;;;2.85;2.42;;;;;;;28.80;55.29;99694.28;10217625;28;96555;-82
2023/06/06 14:28:55;;;;;;;2.70;2.17;;;;;;;29.54;52.43;99690.31;10216983;28;96724;-82
2023/06/06 14:33:58;;;;;;;2.58;1.65;;;;;;;29.79;50.55;99672.59;10217889;28;97642;-82
2023/06/06 14:39:04;;;;;;;2.63;1.95;;;;;;;29.94;49.41;99666.03;10217222;28;97676;-82
2023/06/06 14:44:07;;;;;;;2.15;1.80;;;;;;;30.23;48.52;99662.25;10220399;28;96802;-82
2023/06/06 14:49:11;;;;;;;;;;;;;;;30.44;48.64;99651.31;10256631;28;96675;-82
2023/06/06 14:54:16;;;;;;;3.10;2.03;;;;;;;29.97;49.00;99654.78;10256985;28;96797;-82
2023/06/06 14:59:20;;;;;;;2.58;2.20;;;;;;;29.85;48.90;99644.69;10256744;28;96923;-82
2023/06/06 15:04:42;;;;;;;2.40;1.90;;;;;;;29.94;49.41;99644.31;10255455;28;96690;-82
2023/06/06 15:09:47;;;;;;;2.22;1.75;;;;;;;30.03;51.55;99626.00;10237748;28;97446;-82
2023/06/06 15:14:50;;;;;;;2.38;1.85;;;;;;;30.21;52.92;99607.34;10215711;28;97932;-82
2023/06/06 15:19:54;;;;;;;2.63;1.92;;;;;;;30.58;50.83;99614.16;10216556;28;96791;-82
2023/06/06 15:24:58;;;;;;;;;;;;;;;31.05;48.84;99614.13;10216797;28;96691;-82
2023/06/06 15:30:02;;;;;;;2.22;1.90;;;;;;;31.07;47.98;99601.16;10215765;28;96668;-82
2023/06/06 15:35:07;;;;;;;2.22;1.92;;;;;;;31.04;47.80;99594.25;10215253;28;97560;-82
2023/06/06 15:40:13;;;;;;;2.20;1.90;;;;;;;31.23;47.74;99585.25;10213059;28;97310;-82
2023/06/06 15:45:17;;;;;;;3.20;2.10;;;;;;;31.39;47.72;99585.94;10214844;28;97010;-83
2023/06/06 15:50:21;;;;;;;4.30;2.53;;;;;;;31.02;47.43;99596.34;10214934;28;97176;-82
2023/06/06 15:55:26;;;;;;;2.80;2.03;;;;;;;30.92;47.71;99587.75;10215103;28;96775;-83
2023/06/06 16:00:29;;;;;;;2.95;2.10;;;;;;;30.71;48.95;99579.78;10214618;28;96550;-83
2023/06/06 16:05:33;;;;;;;2.20;1.80;;;;;;;30.60;48.98;99569.47;10214276;28;96980;-82
2023/06/06 16:10:38;;;;;;;2.95;2.05;;;;;;;30.53;49.15;99568.63;10214789;28;96749;-82
2023/06/06 16:15:41;;;;;;;2.65;1.88;;;;;;;30.32;49.24;99565.22;10214825;28;96724;-82
2023/06/06 16:20:45;;;;;;;2.50;2.20;;;;;;;30.13;50.80;99566.78;10213965;28;97600;-82
2023/06/06 16:25:49;;;;;;;3.08;1.90;;;;;;;30.00;50.05;99555.84;10214466;28;97414;-82
2023/06/06 16:30:53;;;;;;;2.00;1.60;;;;;;;30.14;49.69;99547.59;10212495;28;96581;-82
2023/06/06 16:35:57;;;;;;;3.25;2.17;;;;;;;30.14;50.74;99544.88;10213045;28;96911;-82
2023/06/06 16:41:02;;;;;;;3.08;2.28;;;;;;;30.10;52.15;99540.06;10213267;28;96618;-82
2023/06/06 16:46:06;;;;;;;4.07;2.90;;;;;;;30.01;53.75;99541.22;10213291;28;98313;-83
2023/06/06 16:51:09;;;;;;;2.63;2.13;;;;;;;29.86;53.48;99544.09;10217764;28;96901;-83
2023/06/06 16:56:14;;;;;;;2.63;2.25;;;;;;;29.80;53.77;99541.34;10220134;28;96733;-82
2023/06/06 17:01:18;;;;;;;2.90;2.33;;;;;;;29.66;55.14;99534.19;10220893;28;97563;-83
2023/06/06 17:06:21;;;;;;;;;;;;;;;29.56;56.97;99537.25;10220970;28;96903;-83
2023/06/06 17:11:26;;;;;;;5.35;2.70;;;;;;;29.59;55.88;99541.44;10219750;28;96854;-82
2023/06/06 17:16:29;;;;;;;3.20;2.20;;;;;;;29.47;56.55;99530.25;10219839;28;96851;-82
2023/06/06 17:21:33;;;;;;;3.15;2.28;;;;;;;29.45;56.58;99534.22;10257979;28;96809;-82
2023/06/06 17:26:38;;;;;;;3.28;2.42;;;;;;;29.31;57.49;99525.16;10259810;28;97841;-82
2023/06/06 17:31:42;;;;;;;3.50;2.47;;;;;;;29.28;57.86;99520.13;10259699;28;96594;-82
2023/06/06 17:36:46;;;;;;;2.60;2.33;;;;;;;29.32;58.09;99524.13;10257953;28;97210;-82
2023/06/06 17:41:51;;;;;;;3.90;2.45;;;;;;;29.40;57.98;99529.38;10247526;28;96833;-82
2023/06/06 17:46:54;;;;;;;3.35;2.25;;;;;;;29.42;58.25;99521.03;10218664;28;97014;-83
2023/06/06 17:51:58;;;;;;;3.25;2.53;;;;;;;29.34;58.44;99522.06;10228829;28;96734;-82
2023/06/06 17:57:03;;;;;;;;;;;;;;;29.28;59.70;99520.13;10260007;28;96630;-82
2023/06/06 18:02:06;;;;;;;3.22;2.38;;;;;;;29.05;59.76;99516.81;10258231;28;97115;-83
2023/06/06 18:07:10;;;;;;;3.22;2.40;;;;;;;28.92;60.40;99519.41;10258230;28;96943;-82
2023/06/06 18:12:15;;;;;;;3.35;2.70;;;;;;;28.97;60.49;99523.22;10219671;28;96649;-82
2023/06/06 18:17:19;;;;;;;3.58;2.38;;;;;;;28.91;60.68;99525.88;10217476;28;97370;-82
2023/06/06 18:22:22;;;;;;;;;;;;;;;28.87;62.23;99525.38;10217916;28;96621;-82
2023/06/06 18:27:27;;;;;;;3.55;2.45;;;;;;;28.79;60.79;99521.97;10218012;28;96774;-82
2023/06/06 18:32:30;;;;;;;3.47;2.35;;;;;;;28.62;61.25;99524.09;10217185;28;96876;-82
2023/06/06 18:37:35;;;;;;;4.32;2.70;;;;;;;28.53;61.76;99522.56;10216901;28;96863;-82
2023/06/06 18:42:40;;;;;;;3.92;2.95;;;;;;;28.41;62.35;99515.94;10217601;28;97494;-82
2023/06/06 18:47:43;;;;;;;3.20;2.55;;;;;;;28.33;62.29;99512.53;10217484;28;96618;-82
2023/06/06 18:52:48;;;;;;;3.38;2.85;;;;;;;28.19;63.05;99518.81;10216729;28;97051;-82
2023/06/06 18:57:53;;;;;;;3.95;2.90;;;;;;;28.04;64.40;99518.84;10216502;28;97818;-82
2023/06/06 19:02:56;;;;;;;4.05;2.65;;;;;;;27.97;64.80;99521.47;10216243;28;97785;-82
2023/06/06 19:08:01;;;;;;;3.25;2.80;;;;;;;27.80;65.42;99517.31;10216283;28;96777;-82
2023/06/06 19:13:06;;;;;;;2.97;2.42;;;;;;;27.77;65.61;99514.13;10215757;28;97597;-82
2023/06/06 19:18:09;;;;;;;3.40;2.97;;;;;;;27.73;66.01;99521.78;10216752;28;96687;-82
2023/06/06 19:23:33;;;;;;;3.38;2.60;;;;;;;27.62;66.42;99510.53;10216416;28;96870;-82
2023/06/06 19:28:38;;;;;;;3.40;2.63;;;;;;;27.49;66.68;99508.50;10215779;28;96769;-82
2023/06/06 19:33:42;;;;;;;4.50;3.05;;;;;;;27.37;67.43;99506.44;10215854;28;96732;-82
2023/06/06 19:38:45;;;;;;;4.03;3.10;;;;;;;27.38;66.85;99505.41;10215615;28;96785;-82
2023/06/06 19:43:51;;;;;;;3.80;3.00;;;;;;;27.24;67.36;99493.56;10214795;28;97653;-82
2023/06/06 19:48:54;;;;;;;3.78;2.63;;;;;;;27.06;67.41;99489.56;10215385;28;96958;-82
2023/06/06 19:53:58;;;;;;;3.53;2.70;;;;;;;26.81;67.23;99489.75;10214385;28;96652;-82
2023/06/06 19:59:03;;;;;;;3.22;2.72;;;;;;;26.66;67.33;99475.34;10214614;28;96949;-82
2023/06/06 20:04:06;;;;;;;3.28;2.45;;;;;;;26.47;67.10;99478.53;10222668;22;98500;-82
2023/06/06 20:09:10;;;;;;;4.05;3.22;;;;;;;26.28;67.23;99473.59;10232686;28;96886;-82
2023/06/06 20:14:16;;;;;;;3.70;2.72;;;;;;;26.14;67.78;99476.22;10222886;28;96973;-82
2023/06/06 20:19:19;;;;;;;3.45;2.88;;;;;;;25.95;67.97;99463.19;10214098;28;97651;-82
2023/06/06 20:24:23;;;;;;;3.65;2.67;;;;;;;25.78;68.07;99476.75;10218516;28;96784;-82
2023/06/06 20:29:27;;;;;;;3.47;2.63;;;;;;;25.68;67.39;99462.63;10254375;28;97143;-82
2023/06/06 20:34:31;;;;;;;3.58;2.80;;;;;;;25.75;66.30;99471.72;10254238;28;97591;-81
2023/06/06 20:39:37;;;;;;;3.20;2.28;;;;;;;25.81;64.39;99468.31;10254331;28;96912;-81
2023/06/06 20:44:42;;;;;;;3.35;2.25;;;;;;;26.07;61.32;99473.41;10252173;28;98063;-81
2023/06/06 20:49:45;;;;;;;2.83;2.22;;;;;;;26.16;59.58;99466.09;10253639;28;97836;-81
2023/06/06 20:54:49;;;;;;;2.80;2.17;;;;;;;26.30;57.20;99471.56;10253254;28;96864;-82
2023/06/06 20:59:54;;;;;;;2.60;2.10;;;;;;;26.39;56.23;99462.41;10245584;28;96909;-82
2023/06/06 21:04:57;;;;;;;2.67;1.77;;;;;;;26.52;54.66;99459.13;10212276;28;98219;-82
2023/06/06 21:10:01;;;;;;;2.95;2.10;;;;;;;26.56;53.54;99469.38;10212625;28;97542;-82
2023/06/06 21:15:06;;;;;;;;;;;;;;;26.60;52.82;99473.38;10216203;28;96668;-82
2023/06/06 21:20:11;;;;;;;2.88;1.92;;;;;;;26.53;54.42;99469.72;10217730;28;97520;-82
2023/06/06 21:25:14;;;;;;;2.42;2.00;;;;;;;26.61;52.73;99477.75;10212360;28;96786;-82
2023/06/06 21:30:19;;;;;;;2.17;1.80;;;;;;;26.61;52.54;99475.06;10212318;28;96858;-82
2023/06/06 21:35:23;;;;;;;3.20;1.77;;;;;;;26.55;52.82;99488.44;10242984;28;97279;-82
2023/06/06 21:40:26;;;;;;;2.92;2.10;;;;;;;26.56;52.14;99482.84;10259352;28;97013;-82
2023/06/06 21:45:31;;;;;;;2.47;1.77;;;;;;;26.59;52.14;99487.06;10259182;28;97581;-82
2023/06/06 21:50:35;;;;;;;2.13;1.80;;;;;;;26.48;52.71;99498.28;10258297;28;96891;-82
2023/06/06 21:55:38;;;;;;;2.88;2.10;;;;;;;26.26;54.54;99502.63;10258908;28;96634;-82
2023/06/06 22:00:43;;;;;;;3.10;1.80;;;;;;;26.17;55.04;99509.06;10245013;28;97001;-82
2023/06/06 22:05:46;;;;;;;3.63;2.30;;;;;;;25.86;57.68;99535.19;10218111;28;96667;-82
2023/06/06 22:10:50;;;;;;;3.00;2.13;;;;;;;25.84;58.30;99554.25;10219065;28;96682;-82
2023/06/06 22:15:55;;;;;;;3.97;2.63;;;;;;;25.62;59.31;99567.59;10217892;28;96631;-82
2023/06/06 22:20:58;;;;;;;3.53;2.47;;;;;;;25.56;58.85;99593.38;10217838;28;96594;-82
2023/06/06 22:26:01;;;;;;;3.60;2.70;;;;;;;25.62;57.18;99572.97;10216801;28;97830;-82
2023/06/06 22:31:13;;;;;;;4.35;2.40;;;;;;;25.59;57.59;99571.47;10217102;28;97224;-81
2023/06/06 22:36:16;;;;;;;4.32;2.55;;;;;;;25.47;57.91;99570.13;10216593;28;96912;-81
2023/06/06 22:41:20;;;;;;;3.58;2.33;;;;;;;25.19;59.46;99559.94;10217912;28;96712;-82
2023/06/06 22:46:25;;;;;;;4.15;2.80;;;;;;;25.21;59.16;99533.66;10216532;28;97794;-82
2023/06/06 22:51:28;;;;;;;2.80;2.05;;;;;;;25.07;59.96;99537.06;10216768;28;96618;-82
2023/06/06 22:56:32;;;;;;;3.67;2.50;;;;;;;24.86;60.89;99542.91;10216782;28;96957;-81
2023/06/06 23:01:37;;;;;;;3.13;2.58;;;;;;;24.70;61.61;99535.69;10217348;28;96845;-82
2023/06/06 23:06:40;;;;;;;3.30;2.30;;;;;;;24.65;61.57;99553.34;10216014;28;96883;-82
2023/06/06 23:11:43;;;;;;;3.10;2.40;;;;;;;24.59;62.10;99581.75;10216244;28;98031;-82
2023/06/06 23:16:49;;;;;;;4.07;2.87;;;;;;;24.40;62.71;99619.69;10239921;28;96648;-82
2023/06/06 23:21:52;;;;;;;5.15;3.45;;;;;;;24.22;63.46;99623.47;10256338;28;97097;-82
2023/06/06 23:26:56;;;;;;;6.43;4.13;;;;;;;23.89;63.97;99632.38;10255943;28;96619;-81
2023/06/06 23:32:01;;;;;;;5.87;4.37;;;;;;;23.54;64.76;99657.50;10254971;28;96669;-82
2023/06/06 23:37:04;;;;;;;5.57;4.07;;;;;;;23.33;65.12;99654.28;10255585;28;96743;-81
2023/06/06 23:42:08;;;;;;;5.27;4.10;;;;;;;23.13;65.31;99666.22;10255688;28;96624;-81